<?xml version="1.0" encoding="UTF-8" standalone="no" ?>
<gpx xmlns="http://www.topografix.com/GPX/1/1" xmlns:xsi="http://www.w3.org/2001/XMLSchema-instance" xsi:schemaLocation="http://www.topografix.com/GPX/1/1 http://www.topografix.com/GPX/1/1/gpx.xsd" version="1.1" creator="VisuGPX - https://www.visugpx.com">
  <metadata>
    <name>rando parcey</name>
    <desc><![CDATA[rando de reprise après les fêtes]]></desc>
  </metadata>
  <trk>
    <name><![CDATA[parcey debut]]></name>
    <trkseg>
      <trkpt lat="47.01418" lon="5.49353">
        <ele>189</ele>
        <time>2012-01-12T13:46:09Z</time>
      </trkpt>
      <trkpt lat="47.01418" lon="5.49353">
        <ele>188</ele>
        <time>2012-01-12T13:46:20Z</time>
      </trkpt>
      <trkpt lat="47.0142" lon="5.49354">
        <ele>184</ele>
        <time>2012-01-12T13:46:33Z</time>
      </trkpt>
      <trkpt lat="47.01419" lon="5.49352">
        <ele>183</ele>
        <time>2012-01-12T13:47:06Z</time>
      </trkpt>
      <trkpt lat="47.01424" lon="5.49341">
        <ele>183</ele>
        <time>2012-01-12T13:47:30Z</time>
      </trkpt>
      <trkpt lat="47.01432" lon="5.49342">
        <ele>181</ele>
        <time>2012-01-12T13:47:52Z</time>
      </trkpt>
      <trkpt lat="47.01436" lon="5.49353">
        <ele>181</ele>
        <time>2012-01-12T13:48:00Z</time>
      </trkpt>
      <trkpt lat="47.01437" lon="5.49358">
        <ele>181</ele>
        <time>2012-01-12T13:48:05Z</time>
      </trkpt>
      <trkpt lat="47.01442" lon="5.4938">
        <ele>182</ele>
        <time>2012-01-12T13:48:22Z</time>
      </trkpt>
      <trkpt lat="47.01441" lon="5.49394">
        <ele>182</ele>
        <time>2012-01-12T13:48:42Z</time>
      </trkpt>
      <trkpt lat="47.0145" lon="5.49397">
        <ele>182</ele>
        <time>2012-01-12T13:49:02Z</time>
      </trkpt>
      <trkpt lat="47.01455" lon="5.49405">
        <ele>180</ele>
        <time>2012-01-12T13:49:26Z</time>
      </trkpt>
      <trkpt lat="47.01456" lon="5.49426">
        <ele>180</ele>
        <time>2012-01-12T13:49:41Z</time>
      </trkpt>
      <trkpt lat="47.01456" lon="5.49427">
        <ele>180</ele>
        <time>2012-01-12T13:49:42Z</time>
      </trkpt>
      <trkpt lat="47.01459" lon="5.4944">
        <ele>181</ele>
        <time>2012-01-12T13:50:01Z</time>
      </trkpt>
      <trkpt lat="47.01462" lon="5.49475">
        <ele>181</ele>
        <time>2012-01-12T13:50:29Z</time>
      </trkpt>
      <trkpt lat="47.01455" lon="5.49485">
        <ele>182</ele>
        <time>2012-01-12T13:50:48Z</time>
      </trkpt>
      <trkpt lat="47.0145" lon="5.49479">
        <ele>185</ele>
        <time>2012-01-12T13:51:04Z</time>
      </trkpt>
      <trkpt lat="47.01448" lon="5.49499">
        <ele>184</ele>
        <time>2012-01-12T13:51:23Z</time>
      </trkpt>
      <trkpt lat="47.01447" lon="5.49528">
        <ele>184</ele>
        <time>2012-01-12T13:51:41Z</time>
      </trkpt>
      <trkpt lat="47.01444" lon="5.49557">
        <ele>184</ele>
        <time>2012-01-12T13:51:57Z</time>
      </trkpt>
      <trkpt lat="47.01447" lon="5.49587">
        <ele>184</ele>
        <time>2012-01-12T13:52:14Z</time>
      </trkpt>
      <trkpt lat="47.01444" lon="5.4963">
        <ele>183</ele>
        <time>2012-01-12T13:52:36Z</time>
      </trkpt>
      <trkpt lat="47.01462" lon="5.49651">
        <ele>182</ele>
        <time>2012-01-12T13:52:55Z</time>
      </trkpt>
      <trkpt lat="47.01475" lon="5.49662">
        <ele>181</ele>
        <time>2012-01-12T13:53:17Z</time>
      </trkpt>
      <trkpt lat="47.0149" lon="5.49685">
        <ele>182</ele>
        <time>2012-01-12T13:53:36Z</time>
      </trkpt>
      <trkpt lat="47.01497" lon="5.49689">
        <ele>183</ele>
        <time>2012-01-12T13:53:42Z</time>
      </trkpt>
      <trkpt lat="47.01513" lon="5.49695">
        <ele>183</ele>
        <time>2012-01-12T13:53:54Z</time>
      </trkpt>
      <trkpt lat="47.01528" lon="5.49718">
        <ele>183</ele>
        <time>2012-01-12T13:54:10Z</time>
      </trkpt>
      <trkpt lat="47.0153" lon="5.49722">
        <ele>183</ele>
        <time>2012-01-12T13:54:13Z</time>
      </trkpt>
      <trkpt lat="47.01532" lon="5.49725">
        <ele>183</ele>
        <time>2012-01-12T13:54:16Z</time>
      </trkpt>
      <trkpt lat="47.01549" lon="5.49739">
        <ele>183</ele>
        <time>2012-01-12T13:54:31Z</time>
      </trkpt>
      <trkpt lat="47.0155" lon="5.49743">
        <ele>183</ele>
        <time>2012-01-12T13:54:34Z</time>
      </trkpt>
      <trkpt lat="47.01568" lon="5.49771">
        <ele>183</ele>
        <time>2012-01-12T13:54:52Z</time>
      </trkpt>
      <trkpt lat="47.01575" lon="5.4978">
        <ele>183</ele>
        <time>2012-01-12T13:54:58Z</time>
      </trkpt>
      <trkpt lat="47.01576" lon="5.49784">
        <ele>184</ele>
        <time>2012-01-12T13:55:00Z</time>
      </trkpt>
      <trkpt lat="47.0158" lon="5.49791">
        <ele>183</ele>
        <time>2012-01-12T13:55:04Z</time>
      </trkpt>
      <trkpt lat="47.01585" lon="5.49804">
        <ele>183</ele>
        <time>2012-01-12T13:55:13Z</time>
      </trkpt>
      <trkpt lat="47.0159" lon="5.49817">
        <ele>183</ele>
        <time>2012-01-12T13:55:19Z</time>
      </trkpt>
      <trkpt lat="47.01596" lon="5.49846">
        <ele>183</ele>
        <time>2012-01-12T13:55:34Z</time>
      </trkpt>
      <trkpt lat="47.01596" lon="5.49855">
        <ele>183</ele>
        <time>2012-01-12T13:55:40Z</time>
      </trkpt>
      <trkpt lat="47.01603" lon="5.4988">
        <ele>183</ele>
        <time>2012-01-12T13:55:55Z</time>
      </trkpt>
      <trkpt lat="47.01606" lon="5.49897">
        <ele>183</ele>
        <time>2012-01-12T13:56:05Z</time>
      </trkpt>
      <trkpt lat="47.0161" lon="5.49922">
        <ele>183</ele>
        <time>2012-01-12T13:56:17Z</time>
      </trkpt>
      <trkpt lat="47.01618" lon="5.49949">
        <ele>184</ele>
        <time>2012-01-12T13:56:33Z</time>
      </trkpt>
      <trkpt lat="47.01617" lon="5.49968">
        <ele>184</ele>
        <time>2012-01-12T13:56:44Z</time>
      </trkpt>
      <trkpt lat="47.01617" lon="5.49985">
        <ele>183</ele>
        <time>2012-01-12T13:56:52Z</time>
      </trkpt>
      <trkpt lat="47.01617" lon="5.49994">
        <ele>184</ele>
        <time>2012-01-12T13:56:56Z</time>
      </trkpt>
      <trkpt lat="47.01616" lon="5.50001">
        <ele>183</ele>
        <time>2012-01-12T13:57:00Z</time>
      </trkpt>
      <trkpt lat="47.01619" lon="5.50006">
        <ele>184</ele>
        <time>2012-01-12T13:57:03Z</time>
      </trkpt>
      <trkpt lat="47.01617" lon="5.50033">
        <ele>183</ele>
        <time>2012-01-12T13:57:17Z</time>
      </trkpt>
      <trkpt lat="47.01617" lon="5.50047">
        <ele>184</ele>
        <time>2012-01-12T13:57:24Z</time>
      </trkpt>
      <trkpt lat="47.01618" lon="5.50066">
        <ele>184</ele>
        <time>2012-01-12T13:57:37Z</time>
      </trkpt>
      <trkpt lat="47.01613" lon="5.50082">
        <ele>184</ele>
        <time>2012-01-12T13:57:47Z</time>
      </trkpt>
      <trkpt lat="47.0161" lon="5.50115">
        <ele>184</ele>
        <time>2012-01-12T13:58:02Z</time>
      </trkpt>
      <trkpt lat="47.01604" lon="5.50148">
        <ele>185</ele>
        <time>2012-01-12T13:58:18Z</time>
      </trkpt>
      <trkpt lat="47.01603" lon="5.50149">
        <ele>184</ele>
        <time>2012-01-12T13:58:19Z</time>
      </trkpt>
      <trkpt lat="47.01602" lon="5.50158">
        <ele>184</ele>
        <time>2012-01-12T13:58:23Z</time>
      </trkpt>
      <trkpt lat="47.01599" lon="5.50181">
        <ele>184</ele>
        <time>2012-01-12T13:58:34Z</time>
      </trkpt>
      <trkpt lat="47.01597" lon="5.50208">
        <ele>184</ele>
        <time>2012-01-12T13:58:47Z</time>
      </trkpt>
      <trkpt lat="47.01597" lon="5.50212">
        <ele>184</ele>
        <time>2012-01-12T13:58:49Z</time>
      </trkpt>
      <trkpt lat="47.01596" lon="5.50219">
        <ele>184</ele>
        <time>2012-01-12T13:58:52Z</time>
      </trkpt>
      <trkpt lat="47.01591" lon="5.50255">
        <ele>185</ele>
        <time>2012-01-12T13:59:09Z</time>
      </trkpt>
      <trkpt lat="47.0159" lon="5.50281">
        <ele>184</ele>
        <time>2012-01-12T13:59:23Z</time>
      </trkpt>
      <trkpt lat="47.01583" lon="5.50307">
        <ele>185</ele>
        <time>2012-01-12T13:59:37Z</time>
      </trkpt>
      <trkpt lat="47.01582" lon="5.50325">
        <ele>185</ele>
        <time>2012-01-12T13:59:48Z</time>
      </trkpt>
      <trkpt lat="47.0158" lon="5.50333">
        <ele>185</ele>
        <time>2012-01-12T13:59:52Z</time>
      </trkpt>
      <trkpt lat="47.01576" lon="5.50357">
        <ele>184</ele>
        <time>2012-01-12T14:00:06Z</time>
      </trkpt>
      <trkpt lat="47.01574" lon="5.50361">
        <ele>184</ele>
        <time>2012-01-12T14:00:09Z</time>
      </trkpt>
      <trkpt lat="47.01568" lon="5.50388">
        <ele>185</ele>
        <time>2012-01-12T14:00:23Z</time>
      </trkpt>
      <trkpt lat="47.01567" lon="5.50408">
        <ele>185</ele>
        <time>2012-01-12T14:00:35Z</time>
      </trkpt>
      <trkpt lat="47.01567" lon="5.50435">
        <ele>185</ele>
        <time>2012-01-12T14:00:49Z</time>
      </trkpt>
      <trkpt lat="47.01566" lon="5.5044">
        <ele>185</ele>
        <time>2012-01-12T14:00:52Z</time>
      </trkpt>
      <trkpt lat="47.01559" lon="5.5046">
        <ele>185</ele>
        <time>2012-01-12T14:01:05Z</time>
      </trkpt>
      <trkpt lat="47.01557" lon="5.50467">
        <ele>185</ele>
        <time>2012-01-12T14:01:09Z</time>
      </trkpt>
      <trkpt lat="47.01546" lon="5.50489">
        <ele>185</ele>
        <time>2012-01-12T14:01:23Z</time>
      </trkpt>
      <trkpt lat="47.01537" lon="5.505">
        <ele>186</ele>
        <time>2012-01-12T14:01:31Z</time>
      </trkpt>
      <trkpt lat="47.01535" lon="5.50506">
        <ele>185</ele>
        <time>2012-01-12T14:01:35Z</time>
      </trkpt>
      <trkpt lat="47.01524" lon="5.50526">
        <ele>185</ele>
        <time>2012-01-12T14:01:50Z</time>
      </trkpt>
      <trkpt lat="47.01518" lon="5.50534">
        <ele>186</ele>
        <time>2012-01-12T14:01:56Z</time>
      </trkpt>
      <trkpt lat="47.01504" lon="5.50547">
        <ele>186</ele>
        <time>2012-01-12T14:02:10Z</time>
      </trkpt>
      <trkpt lat="47.01502" lon="5.50552">
        <ele>185</ele>
        <time>2012-01-12T14:02:13Z</time>
      </trkpt>
      <trkpt lat="47.0148" lon="5.50562">
        <ele>185</ele>
        <time>2012-01-12T14:02:29Z</time>
      </trkpt>
      <trkpt lat="47.01477" lon="5.5056">
        <ele>185</ele>
        <time>2012-01-12T14:02:32Z</time>
      </trkpt>
      <trkpt lat="47.01454" lon="5.50544">
        <ele>184</ele>
        <time>2012-01-12T14:02:50Z</time>
      </trkpt>
      <trkpt lat="47.01439" lon="5.50544">
        <ele>185</ele>
        <time>2012-01-12T14:03:02Z</time>
      </trkpt>
      <trkpt lat="47.01421" lon="5.50559">
        <ele>184</ele>
        <time>2012-01-12T14:03:20Z</time>
      </trkpt>
      <trkpt lat="47.01401" lon="5.50563">
        <ele>185</ele>
        <time>2012-01-12T14:03:35Z</time>
      </trkpt>
      <trkpt lat="47.01378" lon="5.50576">
        <ele>185</ele>
        <time>2012-01-12T14:03:51Z</time>
      </trkpt>
      <trkpt lat="47.01369" lon="5.50582">
        <ele>185</ele>
        <time>2012-01-12T14:03:58Z</time>
      </trkpt>
      <trkpt lat="47.01365" lon="5.50587">
        <ele>185</ele>
        <time>2012-01-12T14:04:02Z</time>
      </trkpt>
      <trkpt lat="47.01362" lon="5.50589">
        <ele>184</ele>
        <time>2012-01-12T14:04:06Z</time>
      </trkpt>
      <trkpt lat="47.01353" lon="5.50594">
        <ele>185</ele>
        <time>2012-01-12T14:04:13Z</time>
      </trkpt>
      <trkpt lat="47.0134" lon="5.50611">
        <ele>185</ele>
        <time>2012-01-12T14:04:26Z</time>
      </trkpt>
      <trkpt lat="47.01321" lon="5.50617">
        <ele>185</ele>
        <time>2012-01-12T14:04:41Z</time>
      </trkpt>
      <trkpt lat="47.0132" lon="5.50617">
        <ele>185</ele>
        <time>2012-01-12T14:04:42Z</time>
      </trkpt>
      <trkpt lat="47.0131" lon="5.50613">
        <ele>185</ele>
        <time>2012-01-12T14:04:50Z</time>
      </trkpt>
      <trkpt lat="47.013" lon="5.50611">
        <ele>185</ele>
        <time>2012-01-12T14:04:58Z</time>
      </trkpt>
      <trkpt lat="47.0128" lon="5.50609">
        <ele>185</ele>
        <time>2012-01-12T14:05:14Z</time>
      </trkpt>
      <trkpt lat="47.01275" lon="5.5061">
        <ele>185</ele>
        <time>2012-01-12T14:05:18Z</time>
      </trkpt>
      <trkpt lat="47.01269" lon="5.50612">
        <ele>185</ele>
        <time>2012-01-12T14:05:23Z</time>
      </trkpt>
      <trkpt lat="47.01255" lon="5.50612">
        <ele>185</ele>
        <time>2012-01-12T14:05:35Z</time>
      </trkpt>
      <trkpt lat="47.01238" lon="5.50618">
        <ele>185</ele>
        <time>2012-01-12T14:05:49Z</time>
      </trkpt>
      <trkpt lat="47.01229" lon="5.50626">
        <ele>185</ele>
        <time>2012-01-12T14:05:56Z</time>
      </trkpt>
      <trkpt lat="47.01218" lon="5.50654">
        <ele>185</ele>
        <time>2012-01-12T14:06:13Z</time>
      </trkpt>
      <trkpt lat="47.01218" lon="5.50656">
        <ele>185</ele>
        <time>2012-01-12T14:06:14Z</time>
      </trkpt>
      <trkpt lat="47.0121" lon="5.5067">
        <ele>185</ele>
        <time>2012-01-12T14:06:26Z</time>
      </trkpt>
      <trkpt lat="47.01203" lon="5.50676">
        <ele>185</ele>
        <time>2012-01-12T14:06:31Z</time>
      </trkpt>
      <trkpt lat="47.01185" lon="5.50694">
        <ele>185</ele>
        <time>2012-01-12T14:06:50Z</time>
      </trkpt>
      <trkpt lat="47.01178" lon="5.50698">
        <ele>185</ele>
        <time>2012-01-12T14:06:55Z</time>
      </trkpt>
      <trkpt lat="47.01159" lon="5.50705">
        <ele>185</ele>
        <time>2012-01-12T14:07:10Z</time>
      </trkpt>
      <trkpt lat="47.01143" lon="5.50712">
        <ele>184</ele>
        <time>2012-01-12T14:07:23Z</time>
      </trkpt>
      <trkpt lat="47.01124" lon="5.5072">
        <ele>184</ele>
        <time>2012-01-12T14:07:38Z</time>
      </trkpt>
      <trkpt lat="47.01112" lon="5.5072">
        <ele>184</ele>
        <time>2012-01-12T14:07:47Z</time>
      </trkpt>
      <trkpt lat="47.01097" lon="5.50736">
        <ele>185</ele>
        <time>2012-01-12T14:08:04Z</time>
      </trkpt>
      <trkpt lat="47.01094" lon="5.50741">
        <ele>184</ele>
        <time>2012-01-12T14:08:08Z</time>
      </trkpt>
      <trkpt lat="47.01081" lon="5.5077">
        <ele>185</ele>
        <time>2012-01-12T14:08:22Z</time>
      </trkpt>
      <trkpt lat="47.01067" lon="5.50806">
        <ele>186</ele>
        <time>2012-01-12T14:08:42Z</time>
      </trkpt>
      <trkpt lat="47.01056" lon="5.50822">
        <ele>186</ele>
        <time>2012-01-12T14:08:55Z</time>
      </trkpt>
      <trkpt lat="47.0104" lon="5.50844">
        <ele>186</ele>
        <time>2012-01-12T14:09:11Z</time>
      </trkpt>
      <trkpt lat="47.01024" lon="5.50889">
        <ele>186</ele>
        <time>2012-01-12T14:09:33Z</time>
      </trkpt>
      <trkpt lat="47.01013" lon="5.50937">
        <ele>186</ele>
        <time>2012-01-12T14:09:58Z</time>
      </trkpt>
      <trkpt lat="47.01001" lon="5.50969">
        <ele>187</ele>
        <time>2012-01-12T14:10:15Z</time>
      </trkpt>
      <trkpt lat="47.00994" lon="5.50993">
        <ele>186</ele>
        <time>2012-01-12T14:10:30Z</time>
      </trkpt>
      <trkpt lat="47.00984" lon="5.51029">
        <ele>187</ele>
        <time>2012-01-12T14:10:50Z</time>
      </trkpt>
      <trkpt lat="47.00972" lon="5.51064">
        <ele>187</ele>
        <time>2012-01-12T14:11:09Z</time>
      </trkpt>
      <trkpt lat="47.0096" lon="5.51102">
        <ele>187</ele>
        <time>2012-01-12T14:11:30Z</time>
      </trkpt>
      <trkpt lat="47.00946" lon="5.51145">
        <ele>187</ele>
        <time>2012-01-12T14:11:53Z</time>
      </trkpt>
      <trkpt lat="47.00933" lon="5.51187">
        <ele>187</ele>
        <time>2012-01-12T14:12:17Z</time>
      </trkpt>
      <trkpt lat="47.00922" lon="5.51217">
        <ele>187</ele>
        <time>2012-01-12T14:12:35Z</time>
      </trkpt>
      <trkpt lat="47.00917" lon="5.51229">
        <ele>188</ele>
        <time>2012-01-12T14:12:42Z</time>
      </trkpt>
      <trkpt lat="47.00908" lon="5.51258">
        <ele>187</ele>
        <time>2012-01-12T14:12:58Z</time>
      </trkpt>
      <trkpt lat="47.00894" lon="5.51301">
        <ele>187</ele>
        <time>2012-01-12T14:13:21Z</time>
      </trkpt>
      <trkpt lat="47.00884" lon="5.51341">
        <ele>188</ele>
        <time>2012-01-12T14:13:45Z</time>
      </trkpt>
      <trkpt lat="47.00872" lon="5.51374">
        <ele>188</ele>
        <time>2012-01-12T14:14:04Z</time>
      </trkpt>
      <trkpt lat="47.00856" lon="5.51403">
        <ele>188</ele>
        <time>2012-01-12T14:14:22Z</time>
      </trkpt>
      <trkpt lat="47.00841" lon="5.51416">
        <ele>188</ele>
        <time>2012-01-12T14:14:37Z</time>
      </trkpt>
      <trkpt lat="47.00817" lon="5.51435">
        <ele>188</ele>
        <time>2012-01-12T14:14:59Z</time>
      </trkpt>
      <trkpt lat="47.008" lon="5.51451">
        <ele>188</ele>
        <time>2012-01-12T14:15:12Z</time>
      </trkpt>
      <trkpt lat="47.00783" lon="5.51476">
        <ele>188</ele>
        <time>2012-01-12T14:15:29Z</time>
      </trkpt>
      <trkpt lat="47.0076" lon="5.51522">
        <ele>189</ele>
        <time>2012-01-12T14:15:56Z</time>
      </trkpt>
      <trkpt lat="47.00748" lon="5.51548">
        <ele>188</ele>
        <time>2012-01-12T14:16:13Z</time>
      </trkpt>
      <trkpt lat="47.00744" lon="5.5158">
        <ele>188</ele>
        <time>2012-01-12T14:16:32Z</time>
      </trkpt>
      <trkpt lat="47.00766" lon="5.51586">
        <ele>188</ele>
        <time>2012-01-12T14:16:48Z</time>
      </trkpt>
      <trkpt lat="47.00783" lon="5.51593">
        <ele>188</ele>
        <time>2012-01-12T14:17:01Z</time>
      </trkpt>
      <trkpt lat="47.00801" lon="5.51605">
        <ele>188</ele>
        <time>2012-01-12T14:17:18Z</time>
      </trkpt>
      <trkpt lat="47.00821" lon="5.51616">
        <ele>188</ele>
        <time>2012-01-12T14:17:33Z</time>
      </trkpt>
      <trkpt lat="47.00837" lon="5.5163">
        <ele>188</ele>
        <time>2012-01-12T14:17:47Z</time>
      </trkpt>
      <trkpt lat="47.00839" lon="5.51631">
        <ele>188</ele>
        <time>2012-01-12T14:17:49Z</time>
      </trkpt>
      <trkpt lat="47.00862" lon="5.51642">
        <ele>189</ele>
        <time>2012-01-12T14:18:06Z</time>
      </trkpt>
      <trkpt lat="47.00881" lon="5.51654">
        <ele>188</ele>
        <time>2012-01-12T14:18:22Z</time>
      </trkpt>
      <trkpt lat="47.009" lon="5.51669">
        <ele>189</ele>
        <time>2012-01-12T14:18:39Z</time>
      </trkpt>
      <trkpt lat="47.00907" lon="5.51675">
        <ele>189</ele>
        <time>2012-01-12T14:18:46Z</time>
      </trkpt>
      <trkpt lat="47.00912" lon="5.51696">
        <ele>189</ele>
        <time>2012-01-12T14:19:02Z</time>
      </trkpt>
      <trkpt lat="47.00915" lon="5.51724">
        <ele>189</ele>
        <time>2012-01-12T14:19:19Z</time>
      </trkpt>
      <trkpt lat="47.00915" lon="5.51753">
        <ele>189</ele>
        <time>2012-01-12T14:19:37Z</time>
      </trkpt>
      <trkpt lat="47.00907" lon="5.51776">
        <ele>189</ele>
        <time>2012-01-12T14:19:52Z</time>
      </trkpt>
      <trkpt lat="47.00895" lon="5.51803">
        <ele>189</ele>
        <time>2012-01-12T14:20:11Z</time>
      </trkpt>
      <trkpt lat="47.00888" lon="5.51827">
        <ele>189</ele>
        <time>2012-01-12T14:20:26Z</time>
      </trkpt>
      <trkpt lat="47.00879" lon="5.51861">
        <ele>189</ele>
        <time>2012-01-12T14:20:45Z</time>
      </trkpt>
      <trkpt lat="47.00875" lon="5.51888">
        <ele>189</ele>
        <time>2012-01-12T14:21:01Z</time>
      </trkpt>
      <trkpt lat="47.00871" lon="5.51913">
        <ele>189</ele>
        <time>2012-01-12T14:21:17Z</time>
      </trkpt>
      <trkpt lat="47.00865" lon="5.51945">
        <ele>189</ele>
        <time>2012-01-12T14:21:37Z</time>
      </trkpt>
      <trkpt lat="47.00864" lon="5.51955">
        <ele>189</ele>
        <time>2012-01-12T14:21:44Z</time>
      </trkpt>
      <trkpt lat="47.00861" lon="5.5197">
        <ele>189</ele>
        <time>2012-01-12T14:21:54Z</time>
      </trkpt>
      <trkpt lat="47.0086" lon="5.51973">
        <ele>189</ele>
        <time>2012-01-12T14:21:56Z</time>
      </trkpt>
      <trkpt lat="47.00859" lon="5.51987">
        <ele>189</ele>
        <time>2012-01-12T14:22:16Z</time>
      </trkpt>
      <trkpt lat="47.00859" lon="5.5199">
        <ele>189</ele>
        <time>2012-01-12T14:23:13Z</time>
      </trkpt>
      <trkpt lat="47.00855" lon="5.52015">
        <ele>190</ele>
        <time>2012-01-12T14:26:42Z</time>
      </trkpt>
      <trkpt lat="47.00851" lon="5.52024">
        <ele>189</ele>
        <time>2012-01-12T14:27:08Z</time>
      </trkpt>
      <trkpt lat="47.00846" lon="5.52054">
        <ele>190</ele>
        <time>2012-01-12T14:27:25Z</time>
      </trkpt>
      <trkpt lat="47.00839" lon="5.52087">
        <ele>189</ele>
        <time>2012-01-12T14:27:44Z</time>
      </trkpt>
      <trkpt lat="47.00832" lon="5.52117">
        <ele>189</ele>
        <time>2012-01-12T14:28:01Z</time>
      </trkpt>
      <trkpt lat="47.00829" lon="5.52134">
        <ele>189</ele>
        <time>2012-01-12T14:28:11Z</time>
      </trkpt>
      <trkpt lat="47.00819" lon="5.52155">
        <ele>189</ele>
        <time>2012-01-12T14:28:26Z</time>
      </trkpt>
      <trkpt lat="47.00803" lon="5.52164">
        <ele>189</ele>
        <time>2012-01-12T14:28:42Z</time>
      </trkpt>
      <trkpt lat="47.00785" lon="5.52168">
        <ele>190</ele>
        <time>2012-01-12T14:29:00Z</time>
      </trkpt>
      <trkpt lat="47.00783" lon="5.52168">
        <ele>190</ele>
        <time>2012-01-12T14:29:02Z</time>
      </trkpt>
      <trkpt lat="47.00764" lon="5.52178">
        <ele>189</ele>
        <time>2012-01-12T14:29:17Z</time>
      </trkpt>
      <trkpt lat="47.0076" lon="5.52179">
        <ele>189</ele>
        <time>2012-01-12T14:29:21Z</time>
      </trkpt>
      <trkpt lat="47.00735" lon="5.52196">
        <ele>189</ele>
        <time>2012-01-12T14:29:41Z</time>
      </trkpt>
      <trkpt lat="47.00721" lon="5.52211">
        <ele>189</ele>
        <time>2012-01-12T14:29:55Z</time>
      </trkpt>
      <trkpt lat="47.00705" lon="5.52236">
        <ele>189</ele>
        <time>2012-01-12T14:30:15Z</time>
      </trkpt>
      <trkpt lat="47.00693" lon="5.52253">
        <ele>189</ele>
        <time>2012-01-12T14:30:32Z</time>
      </trkpt>
      <trkpt lat="47.00678" lon="5.52275">
        <ele>188</ele>
        <time>2012-01-12T14:30:48Z</time>
      </trkpt>
      <trkpt lat="47.00667" lon="5.52293">
        <ele>189</ele>
        <time>2012-01-12T14:31:02Z</time>
      </trkpt>
      <trkpt lat="47.00666" lon="5.52296">
        <ele>189</ele>
        <time>2012-01-12T14:31:04Z</time>
      </trkpt>
      <trkpt lat="47.00655" lon="5.52314">
        <ele>189</ele>
        <time>2012-01-12T14:31:16Z</time>
      </trkpt>
      <trkpt lat="47.00647" lon="5.52333">
        <ele>190</ele>
        <time>2012-01-12T14:31:31Z</time>
      </trkpt>
      <trkpt lat="47.00636" lon="5.52355">
        <ele>189</ele>
        <time>2012-01-12T14:31:47Z</time>
      </trkpt>
      <trkpt lat="47.00628" lon="5.52376">
        <ele>189</ele>
        <time>2012-01-12T14:32:00Z</time>
      </trkpt>
      <trkpt lat="47.00618" lon="5.52382">
        <ele>190</ele>
        <time>2012-01-12T14:32:12Z</time>
      </trkpt>
      <trkpt lat="47.00613" lon="5.52398">
        <ele>190</ele>
        <time>2012-01-12T14:32:27Z</time>
      </trkpt>
      <trkpt lat="47.00611" lon="5.524">
        <ele>190</ele>
        <time>2012-01-12T14:32:46Z</time>
      </trkpt>
      <trkpt lat="47.00609" lon="5.52402">
        <ele>190</ele>
        <time>2012-01-12T14:33:20Z</time>
      </trkpt>
      <trkpt lat="47.00609" lon="5.52403">
        <ele>190</ele>
        <time>2012-01-12T14:34:14Z</time>
      </trkpt>
      <trkpt lat="47.00595" lon="5.52405">
        <ele>190</ele>
        <time>2012-01-12T14:37:00Z</time>
      </trkpt>
      <trkpt lat="47.00578" lon="5.52405">
        <ele>190</ele>
        <time>2012-01-12T14:37:17Z</time>
      </trkpt>
      <trkpt lat="47.00564" lon="5.52403">
        <ele>190</ele>
        <time>2012-01-12T14:37:27Z</time>
      </trkpt>
      <trkpt lat="47.00549" lon="5.52402">
        <ele>190</ele>
        <time>2012-01-12T14:37:39Z</time>
      </trkpt>
      <trkpt lat="47.00543" lon="5.52402">
        <ele>190</ele>
        <time>2012-01-12T14:37:44Z</time>
      </trkpt>
      <trkpt lat="47.00523" lon="5.52399">
        <ele>190</ele>
        <time>2012-01-12T14:37:59Z</time>
      </trkpt>
      <trkpt lat="47.00516" lon="5.52401">
        <ele>190</ele>
        <time>2012-01-12T14:38:04Z</time>
      </trkpt>
      <trkpt lat="47.00494" lon="5.52399">
        <ele>190</ele>
        <time>2012-01-12T14:38:21Z</time>
      </trkpt>
      <trkpt lat="47.00488" lon="5.52397">
        <ele>190</ele>
        <time>2012-01-12T14:38:27Z</time>
      </trkpt>
      <trkpt lat="47.00484" lon="5.52396">
        <ele>190</ele>
        <time>2012-01-12T14:38:31Z</time>
      </trkpt>
      <trkpt lat="47.0048" lon="5.52392">
        <ele>190</ele>
        <time>2012-01-12T14:38:35Z</time>
      </trkpt>
      <trkpt lat="47.00479" lon="5.52371">
        <ele>190</ele>
        <time>2012-01-12T14:38:48Z</time>
      </trkpt>
      <trkpt lat="47.00481" lon="5.5234">
        <ele>190</ele>
        <time>2012-01-12T14:39:06Z</time>
      </trkpt>
      <trkpt lat="47.00482" lon="5.52326">
        <ele>190</ele>
        <time>2012-01-12T14:39:12Z</time>
      </trkpt>
      <trkpt lat="47.00481" lon="5.52291">
        <ele>190</ele>
        <time>2012-01-12T14:39:30Z</time>
      </trkpt>
      <trkpt lat="47.00486" lon="5.52264">
        <ele>190</ele>
        <time>2012-01-12T14:39:45Z</time>
      </trkpt>
      <trkpt lat="47.00497" lon="5.52228">
        <ele>190</ele>
        <time>2012-01-12T14:40:06Z</time>
      </trkpt>
      <trkpt lat="47.00504" lon="5.52199">
        <ele>190</ele>
        <time>2012-01-12T14:40:22Z</time>
      </trkpt>
      <trkpt lat="47.00513" lon="5.52162">
        <ele>191</ele>
        <time>2012-01-12T14:40:41Z</time>
      </trkpt>
      <trkpt lat="47.00514" lon="5.5216">
        <ele>191</ele>
        <time>2012-01-12T14:40:42Z</time>
      </trkpt>
      <trkpt lat="47.00521" lon="5.52127">
        <ele>190</ele>
        <time>2012-01-12T14:41:00Z</time>
      </trkpt>
      <trkpt lat="47.00524" lon="5.52116">
        <ele>191</ele>
        <time>2012-01-12T14:41:06Z</time>
      </trkpt>
      <trkpt lat="47.00534" lon="5.52074">
        <ele>191</ele>
        <time>2012-01-12T14:41:28Z</time>
      </trkpt>
      <trkpt lat="47.00542" lon="5.52035">
        <ele>191</ele>
        <time>2012-01-12T14:41:49Z</time>
      </trkpt>
      <trkpt lat="47.00549" lon="5.52003">
        <ele>191</ele>
        <time>2012-01-12T14:42:09Z</time>
      </trkpt>
      <trkpt lat="47.00553" lon="5.51987">
        <ele>191</ele>
        <time>2012-01-12T14:42:19Z</time>
      </trkpt>
      <trkpt lat="47.00554" lon="5.51981">
        <ele>191</ele>
        <time>2012-01-12T14:42:22Z</time>
      </trkpt>
      <trkpt lat="47.00558" lon="5.51956">
        <ele>191</ele>
        <time>2012-01-12T14:42:37Z</time>
      </trkpt>
      <trkpt lat="47.00551" lon="5.51933">
        <ele>191</ele>
        <time>2012-01-12T14:42:55Z</time>
      </trkpt>
      <trkpt lat="47.00551" lon="5.51932">
        <ele>191</ele>
        <time>2012-01-12T14:42:56Z</time>
      </trkpt>
      <trkpt lat="47.00549" lon="5.51912">
        <ele>191</ele>
        <time>2012-01-12T14:43:12Z</time>
      </trkpt>
      <trkpt lat="47.00542" lon="5.51892">
        <ele>191</ele>
        <time>2012-01-12T14:43:28Z</time>
      </trkpt>
      <trkpt lat="47.00524" lon="5.5187">
        <ele>191</ele>
        <time>2012-01-12T14:43:47Z</time>
      </trkpt>
      <trkpt lat="47.00512" lon="5.51854">
        <ele>191</ele>
        <time>2012-01-12T14:44:02Z</time>
      </trkpt>
      <trkpt lat="47.00496" lon="5.51835">
        <ele>192</ele>
        <time>2012-01-12T14:44:17Z</time>
      </trkpt>
      <trkpt lat="47.0048" lon="5.51805">
        <ele>192</ele>
        <time>2012-01-12T14:44:39Z</time>
      </trkpt>
      <trkpt lat="47.00477" lon="5.51801">
        <ele>193</ele>
        <time>2012-01-12T14:44:42Z</time>
      </trkpt>
      <trkpt lat="47.0046" lon="5.51802">
        <ele>193</ele>
        <time>2012-01-12T14:44:57Z</time>
      </trkpt>
      <trkpt lat="47.00447" lon="5.51797">
        <ele>193</ele>
        <time>2012-01-12T14:45:09Z</time>
      </trkpt>
      <trkpt lat="47.00422" lon="5.5179">
        <ele>193</ele>
        <time>2012-01-12T14:45:28Z</time>
      </trkpt>
      <trkpt lat="47.00411" lon="5.51792">
        <ele>193</ele>
        <time>2012-01-12T14:45:37Z</time>
      </trkpt>
      <trkpt lat="47.00387" lon="5.51796">
        <ele>192</ele>
        <time>2012-01-12T14:45:56Z</time>
      </trkpt>
      <trkpt lat="47.00364" lon="5.51798">
        <ele>193</ele>
        <time>2012-01-12T14:46:13Z</time>
      </trkpt>
      <trkpt lat="47.00352" lon="5.51798">
        <ele>193</ele>
        <time>2012-01-12T14:46:23Z</time>
      </trkpt>
      <trkpt lat="47.00342" lon="5.51803">
        <ele>193</ele>
        <time>2012-01-12T14:46:33Z</time>
      </trkpt>
      <trkpt lat="47.00335" lon="5.51804">
        <ele>193</ele>
        <time>2012-01-12T14:46:38Z</time>
      </trkpt>
      <trkpt lat="47.00319" lon="5.51809">
        <ele>193</ele>
        <time>2012-01-12T14:46:54Z</time>
      </trkpt>
      <trkpt lat="47.0031" lon="5.51811">
        <ele>193</ele>
        <time>2012-01-12T14:47:08Z</time>
      </trkpt>
      <trkpt lat="47.00296" lon="5.51814">
        <ele>193</ele>
        <time>2012-01-12T14:47:21Z</time>
      </trkpt>
      <trkpt lat="47.00279" lon="5.51824">
        <ele>194</ele>
        <time>2012-01-12T14:47:35Z</time>
      </trkpt>
      <trkpt lat="47.00265" lon="5.51845">
        <ele>195</ele>
        <time>2012-01-12T14:47:48Z</time>
      </trkpt>
      <trkpt lat="47.00262" lon="5.51867">
        <ele>195</ele>
        <time>2012-01-12T14:48:02Z</time>
      </trkpt>
      <trkpt lat="47.00256" lon="5.51882">
        <ele>196</ele>
        <time>2012-01-12T14:48:13Z</time>
      </trkpt>
      <trkpt lat="47.00247" lon="5.51887">
        <ele>196</ele>
        <time>2012-01-12T14:48:35Z</time>
      </trkpt>
      <trkpt lat="47.00245" lon="5.51908">
        <ele>196</ele>
        <time>2012-01-12T14:48:49Z</time>
      </trkpt>
      <trkpt lat="47.00245" lon="5.5191">
        <ele>196</ele>
        <time>2012-01-12T14:48:51Z</time>
      </trkpt>
      <trkpt lat="47.00236" lon="5.51926">
        <ele>195</ele>
        <time>2012-01-12T14:49:06Z</time>
      </trkpt>
      <trkpt lat="47.00222" lon="5.51953">
        <ele>196</ele>
        <time>2012-01-12T14:49:19Z</time>
      </trkpt>
      <trkpt lat="47.00218" lon="5.51967">
        <ele>196</ele>
        <time>2012-01-12T14:49:27Z</time>
      </trkpt>
      <trkpt lat="47.00207" lon="5.51993">
        <ele>196</ele>
        <time>2012-01-12T14:49:42Z</time>
      </trkpt>
      <trkpt lat="47.00199" lon="5.52004">
        <ele>196</ele>
        <time>2012-01-12T14:49:50Z</time>
      </trkpt>
      <trkpt lat="47.00194" lon="5.52003">
        <ele>197</ele>
        <time>2012-01-12T14:49:55Z</time>
      </trkpt>
      <trkpt lat="47.00191" lon="5.52001">
        <ele>197</ele>
        <time>2012-01-12T14:49:58Z</time>
      </trkpt>
      <trkpt lat="47.00188" lon="5.52001">
        <ele>197</ele>
        <time>2012-01-12T14:50:00Z</time>
      </trkpt>
      <trkpt lat="47.00184" lon="5.51999">
        <ele>197</ele>
        <time>2012-01-12T14:50:04Z</time>
      </trkpt>
      <trkpt lat="47.0018" lon="5.51998">
        <ele>197</ele>
        <time>2012-01-12T14:50:07Z</time>
      </trkpt>
      <trkpt lat="47.00176" lon="5.51997">
        <ele>197</ele>
        <time>2012-01-12T14:50:10Z</time>
      </trkpt>
      <trkpt lat="47.0016" lon="5.52002">
        <ele>198</ele>
        <time>2012-01-12T14:50:25Z</time>
      </trkpt>
      <trkpt lat="47.00151" lon="5.52011">
        <ele>198</ele>
        <time>2012-01-12T14:50:33Z</time>
      </trkpt>
      <trkpt lat="47.00139" lon="5.52024">
        <ele>200</ele>
        <time>2012-01-12T14:50:45Z</time>
      </trkpt>
      <trkpt lat="47.00116" lon="5.52037">
        <ele>202</ele>
        <time>2012-01-12T14:51:05Z</time>
      </trkpt>
      <trkpt lat="47.00104" lon="5.52037">
        <ele>203</ele>
        <time>2012-01-12T14:51:18Z</time>
      </trkpt>
      <trkpt lat="47.00099" lon="5.5204">
        <ele>204</ele>
        <time>2012-01-12T14:51:22Z</time>
      </trkpt>
      <trkpt lat="47.00082" lon="5.52055">
        <ele>205</ele>
        <time>2012-01-12T14:51:38Z</time>
      </trkpt>
      <trkpt lat="47.00073" lon="5.52067">
        <ele>207</ele>
        <time>2012-01-12T14:51:49Z</time>
      </trkpt>
      <trkpt lat="47.00064" lon="5.5209">
        <ele>209</ele>
        <time>2012-01-12T14:52:04Z</time>
      </trkpt>
      <trkpt lat="47.00056" lon="5.52122">
        <ele>211</ele>
        <time>2012-01-12T14:52:28Z</time>
      </trkpt>
      <trkpt lat="47.00052" lon="5.52148">
        <ele>213</ele>
        <time>2012-01-12T14:53:02Z</time>
      </trkpt>
      <trkpt lat="47.00046" lon="5.52183">
        <ele>213</ele>
        <time>2012-01-12T14:53:19Z</time>
      </trkpt>
      <trkpt lat="47.00033" lon="5.52231">
        <ele>214</ele>
        <time>2012-01-12T14:53:48Z</time>
      </trkpt>
      <trkpt lat="47.00022" lon="5.52262">
        <ele>214</ele>
        <time>2012-01-12T14:54:10Z</time>
      </trkpt>
      <trkpt lat="47.0002" lon="5.52273">
        <ele>215</ele>
        <time>2012-01-12T14:54:17Z</time>
      </trkpt>
    </trkseg>
  </trk>
</gpx>